createdAt,value
2019-05-05T00:02:10.385Z,88.30
2019-05-05T00:04:21.103Z,88.80
2019-05-05T00:06:25.061Z,86.70
2019-05-05T00:08:28.762Z,86.40
2019-05-05T00:10:34.787Z,87.40
2019-05-05T00:12:56.174Z,87.90
2019-05-05T00:15:01.397Z,87.90
2019-05-05T00:17:06.646Z,86.10
2019-05-05T00:19:10.314Z,85.80
2019-05-05T00:21:15.170Z,86.80
2019-05-05T00:23:18.987Z,85.50
2019-05-05T00:25:24.847Z,83.30
2019-05-05T00:27:28.138Z,82.60
2019-05-05T00:29:31.790Z,85.90
2019-05-05T00:31:35.466Z,86.10
2019-05-05T00:33:39.138Z,85.40
2019-05-05T00:35:45.006Z,85.30
2019-05-05T00:37:48.231Z,85.30
2019-05-05T00:39:51.885Z,84.80
2019-05-05T00:41:57.039Z,85.70
2019-05-05T00:44:00.707Z,85.00
2019-05-05T00:46:05.918Z,87.80
2019-05-05T00:48:15.335Z,90.60
2019-05-05T00:50:18.166Z,89.40
2019-05-05T00:52:21.839Z,88.10
2019-05-05T00:54:25.507Z,87.90
2019-05-05T00:56:29.166Z,87.90
2019-05-05T00:58:35.298Z,88.40
2019-05-05T01:00:40.759Z,86.50
2019-05-05T01:02:46.014Z,86.80
2019-05-05T01:04:51.246Z,86.10
2019-05-05T01:06:55.027Z,86.10
2019-05-05T01:08:58.811Z,85.30
2019-05-05T01:11:04.143Z,84.20
2019-05-05T01:13:08.126Z,83.80
2019-05-05T01:15:11.782Z,83.10
2019-05-05T01:17:15.511Z,83.10
2019-05-05T01:19:19.185Z,81.50
2019-05-05T01:21:24.436Z,81.80
2019-05-05T01:23:28.214Z,83.10
2019-05-05T01:25:31.865Z,83.10
2019-05-05T01:27:35.529Z,82.60
2019-05-05T01:29:39.254Z,82.20
2019-05-05T01:31:45.062Z,83.40
2019-05-05T01:34:08.010Z,83.00
2019-05-05T01:36:11.670Z,83.10
2019-05-05T01:38:19.749Z,82.70
2019-05-05T01:40:25.075Z,83.00
2019-05-05T01:42:28.727Z,83.20
2019-05-05T01:44:32.403Z,82.00
2019-05-05T01:46:36.062Z,80.70
2019-05-05T01:48:44.400Z,80.90
2019-05-05T01:50:47.948Z,80.80
2019-05-05T01:52:51.603Z,80.80
2019-05-05T01:54:55.282Z,80.80
2019-05-05T01:56:58.942Z,79.70
2019-05-05T01:59:04.987Z,79.50
2019-05-05T02:01:08.134Z,79.60
2019-05-05T02:03:11.877Z,81.30
2019-05-05T02:05:15.907Z,80.20
2019-05-05T02:07:19.630Z,80.10
2019-05-05T02:09:24.975Z,80.10
2019-05-05T02:11:28.847Z,79.80
2019-05-05T02:13:34.479Z,79.80
2019-05-05T02:15:37.902Z,79.50
2019-05-05T02:17:41.588Z,78.80
2019-05-05T02:19:45.323Z,78.80
2019-05-05T02:21:48.983Z,77.60
2019-05-05T02:23:54.541Z,76.90
2019-05-05T02:25:58.215Z,78.10
2019-05-05T02:28:01.887Z,79.60
2019-05-05T02:30:09.703Z,79.40
2019-05-05T02:32:17.615Z,79.30
2019-05-05T02:34:21.274Z,78.80
2019-05-05T02:36:25.758Z,79.10
2019-05-05T02:38:29.778Z,79.50
2019-05-05T02:40:34.997Z,80.70
2019-05-05T02:42:39.215Z,80.10
2019-05-05T02:44:45.515Z,81.50
2019-05-05T02:46:55.170Z,80.70
2019-05-05T02:48:59.602Z,80.90
2019-05-05T02:51:06.737Z,81.50
2019-05-05T02:53:09.373Z,80.70
2019-05-05T02:55:14.668Z,82.10
2019-05-05T02:57:18.886Z,82.20
2019-05-05T02:59:27.100Z,83.60
2019-05-05T03:01:35.886Z,82.20
2019-05-05T03:03:39.942Z,82.80
2019-05-05T03:05:43.594Z,84.30
2019-05-05T03:07:47.375Z,85.80
2019-05-05T03:09:51.946Z,84.70
2019-05-05T03:11:57.790Z,83.40
2019-05-05T03:14:04.390Z,84.30
2019-05-05T03:16:19.704Z,85.00
2019-05-05T03:18:24.717Z,84.70
2019-05-05T03:20:28.557Z,85.20
2019-05-05T03:22:33.995Z,84.50
2019-05-05T03:24:38.182Z,84.70
2019-05-05T03:26:41.855Z,89.10
2019-05-05T03:28:48.327Z,86.80
2019-05-05T03:30:55.549Z,85.60
2019-05-05T03:32:57.382Z,83.60
2019-05-05T03:35:01.148Z,84.10
2019-05-05T03:37:04.941Z,84.60
2019-05-05T03:39:10.173Z,84.10
2019-05-05T03:41:15.389Z,85.00
2019-05-05T03:43:24.138Z,85.00
2019-05-05T03:45:34.073Z,85.90
2019-05-05T03:47:38.094Z,86.90
2019-05-05T03:49:44.079Z,87.90
2019-05-05T03:51:50.667Z,90.40
2019-05-05T03:53:54.842Z,90.00
2019-05-05T03:55:58.700Z,90.20
2019-05-05T03:58:04.126Z,87.40
2019-05-05T04:00:09.473Z,85.40
2019-05-05T04:02:14.840Z,86.30
2019-05-05T04:04:29.170Z,86.80
2019-05-05T04:06:38.417Z,86.70
2019-05-05T04:08:44.408Z,86.00
2019-05-05T04:10:48.217Z,86.70
2019-05-05T04:12:53.968Z,86.90
2019-05-05T04:14:59.135Z,86.80
2019-05-05T04:17:14.105Z,86.90
2019-05-05T04:19:19.593Z,90.10
2019-05-05T04:21:32.835Z,89.80
2019-05-05T04:23:28.754Z,90.20
2019-05-05T04:25:32.411Z,89.70
2019-05-05T04:27:36.074Z,90.80
2019-05-05T04:29:39.839Z,91.00
2019-05-05T04:31:43.592Z,90.40
2019-05-05T04:33:47.250Z,90.90
2019-05-05T04:35:51.085Z,91.90
2019-05-05T04:37:54.757Z,91.70
2019-05-05T04:39:58.534Z,91.30
2019-05-05T04:42:02.207Z,90.90
2019-05-05T04:44:05.879Z,90.30
2019-05-05T04:46:09.526Z,91.90
2019-05-05T04:48:24.206Z,90.90
2019-05-05T04:50:38.708Z,91.70
2019-05-05T04:52:43.467Z,91.60
2019-05-05T04:54:48.958Z,92.70
2019-05-05T04:56:53.996Z,91.40
2019-05-05T04:59:01.076Z,91.20
2019-05-05T05:01:04.813Z,91.20
2019-05-05T05:03:25.768Z,90.90
2019-05-05T05:05:45.839Z,90.90
2019-05-05T05:07:49.488Z,90.90
2019-05-05T05:09:54.002Z,90.80
2019-05-05T05:11:57.848Z,91.20
2019-05-05T05:14:07.198Z,90.40
2019-05-05T05:16:10.918Z,88.10
2019-05-05T05:18:16.733Z,90.50
2019-05-05T05:20:20.571Z,91.40
2019-05-05T05:22:24.444Z,90.90
2019-05-05T05:24:28.174Z,90.00
2019-05-05T05:26:33.583Z,88.80
2019-05-05T05:28:37.401Z,89.50
2019-05-05T05:30:43.950Z,89.00
2019-05-05T05:32:47.662Z,88.40
2019-05-05T05:34:51.315Z,88.40
2019-05-05T05:36:54.985Z,88.10
2019-05-05T05:39:00.205Z,88.30
2019-05-05T05:41:11.174Z,89.00
2019-05-05T05:43:16.394Z,88.80
2019-05-05T05:45:27.427Z,86.70
2019-05-05T05:47:48.441Z,85.60
2019-05-05T05:50:05.542Z,85.30
2019-05-05T05:52:18.779Z,84.20
2019-05-05T05:54:14.699Z,82.20
2019-05-05T05:56:18.451Z,82.60
2019-05-05T05:58:24.363Z,86.30
2019-05-05T06:00:27.587Z,87.40
2019-05-05T06:02:33.373Z,85.30
2019-05-05T06:04:36.650Z,83.60
2019-05-05T06:06:40.337Z,81.60
2019-05-05T06:08:44.160Z,80.70
2019-05-05T06:10:47.820Z,80.90
2019-05-05T06:12:51.603Z,83.90
2019-05-05T06:14:55.264Z,85.60
2019-05-05T06:16:58.930Z,85.10
2019-05-05T06:19:03.676Z,85.30
2019-05-05T06:21:07.446Z,86.30
2019-05-05T06:23:11.196Z,88.00
2019-05-05T06:25:15.896Z,88.30
2019-05-05T06:27:20.025Z,85.60
2019-05-05T06:29:23.990Z,83.60
2019-05-05T06:31:27.715Z,85.10
2019-05-05T06:33:34.867Z,82.80
2019-05-05T06:35:38.601Z,82.10
2019-05-05T06:37:57.216Z,82.20
2019-05-05T06:40:03.794Z,81.00
2019-05-05T06:42:27.162Z,80.20
2019-05-05T06:44:33.784Z,78.20
2019-05-05T06:46:55.478Z,77.20
2019-05-05T06:48:59.175Z,76.40
2019-05-05T06:51:03.964Z,80.10
2019-05-05T06:53:07.778Z,80.50
2019-05-05T06:55:11.529Z,83.20
2019-05-05T06:57:15.223Z,83.10
2019-05-05T06:59:18.993Z,80.80
2019-05-05T07:01:24.650Z,79.10
2019-05-05T07:03:28.142Z,78.30
2019-05-05T07:05:31.798Z,77.00
2019-05-05T07:07:35.494Z,75.40
2019-05-05T07:09:39.172Z,76.70
2019-05-05T07:11:43.634Z,78.50
2019-05-05T07:13:47.481Z,78.60
2019-05-05T07:15:51.148Z,78.20
2019-05-05T07:17:54.814Z,76.90
2019-05-05T07:19:58.492Z,76.60
2019-05-05T07:22:04.095Z,75.70
2019-05-05T07:24:07.549Z,76.00
2019-05-05T07:26:11.214Z,77.10
2019-05-05T07:28:14.897Z,77.20
2019-05-05T07:30:18.562Z,77.80
2019-05-05T07:32:24.314Z,78.00
2019-05-05T07:34:29.322Z,79.10
2019-05-05T07:36:39.969Z,78.60
2019-05-05T07:38:44.627Z,79.40
2019-05-05T07:40:48.299Z,80.80
2019-05-05T07:42:53.917Z,80.70
2019-05-05T07:44:57.358Z,79.30
2019-05-05T07:47:01.080Z,79.00
2019-05-05T07:49:04.972Z,78.50
2019-05-05T07:51:08.631Z,78.90
2019-05-05T07:53:17.527Z,77.30
2019-05-05T07:55:17.711Z,77.50
2019-05-05T07:57:21.370Z,79.40
2019-05-05T07:59:25.102Z,80.20
2019-05-05T08:01:28.757Z,80.40
2019-05-05T08:03:33.896Z,78.70
2019-05-05T08:05:37.670Z,78.30
2019-05-05T08:07:41.843Z,78.30
2019-05-05T08:09:45.524Z,76.80
2019-05-05T08:11:49.198Z,75.40
2019-05-05T08:13:54.707Z,75.60
2019-05-05T08:16:00.286Z,73.80
2019-05-05T08:18:05.600Z,75.40
2019-05-05T08:20:19.718Z,76.60
2019-05-05T08:22:23.614Z,78.20
2019-05-05T08:24:31.395Z,78.50
2019-05-05T08:26:36.698Z,75.70
2019-05-05T08:28:44.655Z,77.60
2019-05-05T08:30:59.190Z,80.00
2019-05-05T08:33:04.647Z,80.20
2019-05-05T08:35:08.834Z,80.70
2019-05-05T08:37:14.504Z,81.30
2019-05-05T08:39:17.861Z,80.60
2019-05-05T08:41:21.549Z,78.10
2019-05-05T08:43:25.306Z,77.40
2019-05-05T08:45:29.141Z,77.00
2019-05-05T08:47:34.584Z,78.90
2019-05-05T08:49:38.441Z,80.00
2019-05-05T08:51:44.108Z,79.00
2019-05-05T08:53:48.464Z,79.10
2019-05-05T08:55:54.505Z,78.90
2019-05-05T08:57:57.762Z,80.20
2019-05-05T09:00:01.415Z,78.70
2019-05-05T09:02:05.097Z,77.10
2019-05-05T09:04:14.030Z,74.80
2019-05-05T09:06:17.177Z,74.70
2019-05-05T09:08:20.841Z,75.80
2019-05-05T09:10:24.603Z,72.70
2019-05-05T09:12:28.350Z,70.30
2019-05-05T09:14:32.010Z,73.70
2019-05-05T09:16:35.706Z,72.20
2019-05-05T09:18:40.931Z,71.40
2019-05-05T09:20:44.792Z,74.20
2019-05-05T09:22:48.613Z,72.60
2019-05-05T09:24:56.635Z,72.70
2019-05-05T09:27:03.669Z,72.30
2019-05-05T09:29:20.256Z,68.40
2019-05-05T09:31:24.032Z,69.50
2019-05-05T09:33:27.756Z,71.60
2019-05-05T09:35:31.438Z,71.40
2019-05-05T09:37:35.261Z,72.20
2019-05-05T09:39:38.924Z,71.80
2019-05-05T09:41:44.471Z,72.20
2019-05-05T09:43:47.990Z,70.50
2019-05-05T09:45:51.666Z,70.00
2019-05-05T09:47:55.338Z,68.50
2019-05-05T09:49:59.006Z,68.10
2019-05-05T09:52:04.798Z,67.90
2019-05-05T09:54:14.085Z,67.10
2019-05-05T09:56:14.554Z,68.90
2019-05-05T09:58:18.352Z,66.70
2019-05-05T10:00:24.270Z,66.70
2019-05-05T10:02:27.667Z,66.10
2019-05-05T10:04:31.846Z,65.90
2019-05-05T10:06:35.899Z,66.40
2019-05-05T10:08:39.771Z,67.80
2019-05-05T10:10:44.224Z,67.90
2019-05-05T10:12:48.094Z,65.40
2019-05-05T10:14:54.033Z,63.90
2019-05-05T10:16:57.160Z,63.90
2019-05-05T10:19:00.847Z,65.00
2019-05-05T10:21:04.778Z,65.50
2019-05-05T10:23:08.460Z,66.70
2019-05-05T10:25:29.562Z,65.70
2019-05-05T10:27:44.641Z,66.70
2019-05-05T10:29:38.627Z,67.90
2019-05-05T10:31:43.721Z,68.90
2019-05-05T10:33:49.124Z,70.10
2019-05-05T10:35:54.123Z,68.40
2019-05-05T10:37:57.923Z,69.50
2019-05-05T10:40:03.531Z,71.00
2019-05-05T10:42:06.996Z,68.80
2019-05-05T10:44:10.677Z,68.90
2019-05-05T10:46:14.444Z,66.30
2019-05-05T10:48:18.160Z,65.60
2019-05-05T10:50:21.912Z,68.10
2019-05-05T10:52:25.567Z,71.50
2019-05-05T10:54:40.545Z,70.90
2019-05-05T10:56:34.742Z,69.90
2019-05-05T10:58:38.426Z,71.10
2019-05-05T11:00:44.757Z,72.10
2019-05-05T11:02:48.449Z,73.40
2019-05-05T11:04:52.139Z,73.30
2019-05-05T11:06:55.942Z,72.30
2019-05-05T11:08:59.830Z,73.20
2019-05-05T11:11:04.239Z,71.80
2019-05-05T11:13:08.066Z,71.70
2019-05-05T11:15:11.872Z,72.40
2019-05-05T11:17:15.543Z,73.50
2019-05-05T11:19:19.242Z,73.80
2019-05-05T11:21:23.712Z,73.40
2019-05-05T11:23:27.469Z,74.10
2019-05-05T11:25:31.229Z,73.60
2019-05-05T11:27:34.887Z,73.30
2019-05-05T11:29:40.159Z,71.00
2019-05-05T11:31:43.890Z,69.00
2019-05-05T11:33:54.840Z,71.50
2019-05-05T11:36:04.470Z,72.90
2019-05-05T11:38:08.260Z,73.80
2019-05-05T11:40:13.818Z,73.40
2019-05-05T11:42:17.508Z,71.70
2019-05-05T11:44:21.199Z,72.40
2019-05-05T11:46:24.929Z,73.10
2019-05-05T11:48:28.666Z,70.60
2019-05-05T11:50:34.224Z,69.60
2019-05-05T11:52:37.950Z,69.70
2019-05-05T11:54:45.342Z,68.50
2019-05-05T11:56:49.044Z,67.30
2019-05-05T11:58:54.494Z,68.70
2019-05-05T12:00:58.151Z,68.00
2019-05-05T12:03:03.768Z,68.90
2019-05-05T12:05:07.414Z,70.10
2019-05-05T12:07:11.097Z,70.50
2019-05-05T12:09:16.319Z,71.20
2019-05-05T12:11:20.003Z,70.40
2019-05-05T12:13:23.740Z,71.70
2019-05-05T12:15:27.698Z,71.70
2019-05-05T12:17:34.523Z,69.90
2019-05-05T12:19:38.191Z,70.30
2019-05-05T12:21:44.062Z,67.70
2019-05-05T12:23:47.242Z,67.90
2019-05-05T12:25:56.950Z,65.70
2019-05-05T12:28:04.205Z,65.00
2019-05-05T12:30:08.363Z,68.40
2019-05-05T12:32:12.945Z,67.40
2019-05-05T12:34:17.455Z,69.60
2019-05-05T12:36:21.206Z,70.00
2019-05-05T12:38:24.922Z,69.50
2019-05-05T12:40:28.575Z,72.10
2019-05-05T12:42:32.223Z,75.90
2019-05-05T12:44:37.572Z,76.70
2019-05-05T12:46:48.311Z,75.60
2019-05-05T12:48:54.274Z,75.80
2019-05-05T12:50:57.998Z,75.50
2019-05-05T12:53:03.909Z,74.10
2019-05-05T12:55:07.058Z,75.20
2019-05-05T12:57:10.728Z,71.80
2019-05-05T12:59:15.967Z,71.20
2019-05-05T13:01:33.634Z,68.20
2019-05-05T13:03:37.409Z,64.30
2019-05-05T13:05:41.073Z,64.60
2019-05-05T13:07:44.739Z,64.10
2019-05-05T13:09:48.439Z,63.30
2019-05-05T13:11:54.106Z,62.90
2019-05-05T13:13:57.602Z,62.40
2019-05-05T13:16:01.267Z,61.50
2019-05-05T13:18:04.910Z,62.80
2019-05-05T13:20:14.165Z,59.70
2019-05-05T13:22:28.021Z,60.00
2019-05-05T13:24:36.316Z,61.50
2019-05-05T13:26:44.094Z,60.40
2019-05-05T13:28:47.784Z,62.50
2019-05-05T13:30:51.462Z,61.60
2019-05-05T13:32:55.122Z,64.00
2019-05-05T13:34:58.804Z,63.40
2019-05-05T13:37:03.607Z,65.50
2019-05-05T13:39:08.617Z,65.60
2019-05-05T13:41:12.274Z,66.10
2019-05-05T13:43:15.938Z,66.70
2019-05-05T13:45:21.265Z,66.40
2019-05-05T13:47:25.010Z,63.30
2019-05-05T13:49:33.232Z,62.80
2019-05-05T13:51:36.894Z,62.30
2019-05-05T13:53:40.561Z,62.00
2019-05-05T13:55:46.120Z,62.40
2019-05-05T13:57:49.980Z,61.30
2019-05-05T13:59:54.564Z,61.60
2019-05-05T14:01:58.342Z,63.20
2019-05-05T14:04:02.021Z,62.10
2019-05-05T14:06:05.729Z,63.30
2019-05-05T14:08:09.459Z,62.30
2019-05-05T14:10:14.446Z,59.60
2019-05-05T14:12:18.262Z,59.60
2019-05-05T14:14:24.126Z,59.00
2019-05-05T14:16:27.338Z,58.40
2019-05-05T14:18:31.011Z,57.90
2019-05-05T14:20:34.722Z,57.40
2019-05-05T14:22:38.375Z,57.70
2019-05-05T14:24:44.458Z,59.30
2019-05-05T14:26:48.302Z,58.30
2019-05-05T14:28:53.638Z,57.20
2019-05-05T14:30:58.888Z,56.80
2019-05-05T14:33:03.758Z,56.40
2019-05-05T14:35:15.366Z,56.20
2019-05-05T14:37:33.961Z,57.10
2019-05-05T14:39:37.567Z,56.40
2019-05-05T14:41:42.014Z,55.50
2019-05-05T14:43:47.054Z,55.00
2019-05-05T14:45:50.696Z,57.10
2019-05-05T14:47:54.382Z,54.70
2019-05-05T14:49:59.336Z,53.70
2019-05-05T14:52:04.418Z,54.80
2019-05-05T14:54:10.734Z,55.50
2019-05-05T14:56:13.835Z,53.00
2019-05-05T14:58:17.529Z,54.40
2019-05-05T15:00:24.237Z,54.30
2019-05-05T15:02:28.079Z,54.40
2019-05-05T15:04:34.487Z,53.60
2019-05-05T15:06:43.970Z,54.70
2019-05-05T15:08:55.293Z,54.60
2019-05-05T15:11:00.620Z,55.70
2019-05-05T15:13:06.878Z,55.80
2019-05-05T15:15:10.669Z,59.30
2019-05-05T15:17:14.378Z,58.00
2019-05-05T15:19:18.181Z,57.20
2019-05-05T15:21:23.641Z,56.60
2019-05-05T15:23:27.473Z,57.40
2019-05-05T15:25:31.137Z,58.70
2019-05-05T15:27:34.940Z,58.80
2019-05-05T15:29:38.654Z,59.90
2019-05-05T15:31:43.516Z,59.40
2019-05-05T15:33:47.281Z,58.60
2019-05-05T15:35:50.955Z,60.90
2019-05-05T15:37:54.651Z,61.50
2019-05-05T15:39:58.392Z,63.30
2019-05-05T15:42:02.072Z,63.10
2019-05-05T15:44:05.786Z,65.50
2019-05-05T15:46:09.422Z,65.40
2019-05-05T15:48:14.061Z,65.80
2019-05-05T15:50:17.862Z,62.70
2019-05-05T15:52:21.514Z,61.00
2019-05-05T15:54:25.273Z,59.90
2019-05-05T15:56:28.925Z,60.10
2019-05-05T15:58:34.214Z,59.30
2019-05-05T16:00:38.073Z,59.50
2019-05-05T16:02:43.985Z,57.40
2019-05-05T16:04:47.263Z,58.20
2019-05-05T16:06:50.930Z,56.70
2019-05-05T16:08:56.687Z,56.90
2019-05-05T16:11:00.006Z,55.40
2019-05-05T16:13:04.488Z,55.00
2019-05-05T16:15:13.853Z,55.40
2019-05-05T16:17:19.177Z,54.50
2019-05-05T16:19:36.043Z,52.60
2019-05-05T16:21:41.287Z,53.30
2019-05-05T16:23:46.517Z,53.40
2019-05-05T16:25:50.196Z,53.20
2019-05-05T16:27:53.861Z,51.90
2019-05-05T16:29:57.555Z,52.70
2019-05-05T16:32:01.248Z,52.70
2019-05-05T16:34:04.916Z,52.70
2019-05-05T16:36:08.608Z,51.00
2019-05-05T16:38:14.702Z,52.40
2019-05-05T16:40:17.901Z,51.80
2019-05-05T16:42:21.565Z,51.70
2019-05-05T16:44:26.183Z,52.80
2019-05-05T16:46:29.860Z,52.50
2019-05-05T16:48:34.357Z,54.70
2019-05-05T16:50:38.194Z,54.70
2019-05-05T16:52:46.238Z,54.20
2019-05-05T16:55:09.592Z,53.90
2019-05-05T16:57:14.429Z,55.00
2019-05-05T16:59:18.169Z,58.60
2019-05-05T17:01:21.968Z,60.00
2019-05-05T17:03:25.634Z,62.10
2019-05-05T17:05:29.279Z,62.30
2019-05-05T17:07:34.314Z,61.80
2019-05-05T17:09:38.002Z,60.70
2019-05-05T17:11:43.953Z,60.10
2019-05-05T17:14:05.092Z,60.60
2019-05-05T17:16:10.360Z,59.10
2019-05-05T17:18:35.388Z,58.80
2019-05-05T17:20:44.434Z,58.40
2019-05-05T17:22:49.841Z,57.90
2019-05-05T17:24:53.636Z,59.10
2019-05-05T17:26:57.387Z,59.90
2019-05-05T17:29:01.084Z,59.70
2019-05-05T17:31:04.750Z,61.00
2019-05-05T17:33:08.434Z,61.40
2019-05-05T17:35:12.089Z,62.00
2019-05-05T17:37:17.257Z,62.40
2019-05-05T17:39:23.623Z,61.10
2019-05-05T17:41:44.699Z,59.10
2019-05-05T17:43:55.443Z,58.20
2019-05-05T17:46:03.869Z,57.80
2019-05-05T17:48:11.722Z,57.70
2019-05-05T17:50:25.985Z,58.30
2019-05-05T17:52:40.176Z,58.50
2019-05-05T17:54:45.659Z,56.70
2019-05-05T17:56:52.204Z,56.50
2019-05-05T17:58:54.874Z,55.90
2019-05-05T18:01:00.136Z,56.70
2019-05-05T18:03:04.391Z,57.50
2019-05-05T18:05:08.154Z,56.50
2019-05-05T18:07:16.325Z,56.40
2019-05-05T18:09:37.331Z,56.00
2019-05-05T18:11:44.187Z,56.40
2019-05-05T18:13:58.246Z,56.20
2019-05-05T18:16:04.431Z,56.00
2019-05-05T18:18:07.679Z,56.70
2019-05-05T18:20:11.430Z,55.80
2019-05-05T18:22:15.098Z,55.30
2019-05-05T18:24:18.781Z,56.00
2019-05-05T18:26:24.351Z,55.80
2019-05-05T18:28:27.847Z,56.20
2019-05-05T18:30:33.466Z,55.50
2019-05-05T18:32:36.897Z,56.20
2019-05-05T18:34:40.595Z,55.70
2019-05-05T18:36:44.643Z,55.40
2019-05-05T18:38:48.531Z,55.50
2019-05-05T18:40:53.521Z,54.80
2019-05-05T18:42:58.771Z,54.40
2019-05-05T18:45:06.871Z,55.20
2019-05-05T18:47:20.299Z,54.90
2019-05-05T18:49:23.989Z,55.50
2019-05-05T18:51:27.674Z,55.90
2019-05-05T18:53:31.395Z,56.30
2019-05-05T18:55:35.088Z,56.30
2019-05-05T18:57:38.899Z,55.20
2019-05-05T18:59:44.532Z,55.30
2019-05-05T19:01:52.370Z,54.60
2019-05-05T19:04:06.111Z,55.10
2019-05-05T19:06:17.378Z,55.30
2019-05-05T19:08:24.367Z,54.80
2019-05-05T19:10:28.201Z,55.40
2019-05-05T19:12:31.869Z,54.90
2019-05-05T19:14:35.603Z,54.70
2019-05-05T19:16:39.298Z,54.60
2019-05-05T19:18:44.774Z,54.60
2019-05-05T19:20:56.015Z,54.30
2019-05-05T19:23:05.740Z,55.20
2019-05-05T19:25:17.155Z,56.20
2019-05-05T19:27:20.819Z,57.00
2019-05-05T19:29:24.503Z,57.20
2019-05-05T19:31:28.194Z,58.20
2019-05-05T19:33:33.925Z,58.30
2019-05-05T19:35:44.333Z,58.40
2019-05-05T19:37:44.536Z,58.60
2019-05-05T19:39:48.045Z,58.80
2019-05-05T19:41:54.085Z,58.90
2019-05-05T19:43:57.180Z,58.40
2019-05-05T19:46:00.873Z,58.20
2019-05-05T19:48:06.002Z,57.20
2019-05-05T19:50:24.834Z,58.10
2019-05-05T19:52:28.550Z,58.40
2019-05-05T19:54:34.054Z,58.20
2019-05-05T19:56:37.638Z,57.80
2019-05-05T19:58:55.059Z,57.90
2019-05-05T20:00:46.844Z,57.70
2019-05-05T20:03:01.289Z,58.30
2019-05-05T20:04:55.945Z,58.80
2019-05-05T20:06:59.642Z,59.20
2019-05-05T20:09:05.003Z,59.50
2019-05-05T20:11:08.659Z,59.80
2019-05-05T20:13:13.829Z,60.30
2019-05-05T20:15:23.876Z,60.40
2019-05-05T20:17:33.598Z,60.80
2019-05-05T20:19:38.761Z,60.70
2019-05-05T20:21:43.905Z,61.50
2019-05-05T20:23:47.693Z,61.20
2019-05-05T20:25:51.345Z,61.60
2019-05-05T20:27:56.020Z,61.80
2019-05-05T20:29:59.810Z,61.70
2019-05-05T20:32:04.291Z,61.80
2019-05-05T20:34:25.508Z,62.20
2019-05-05T20:36:34.614Z,64.40
2019-05-05T20:38:52.086Z,64.70
2019-05-05T20:41:13.958Z,64.70
2019-05-05T20:43:17.262Z,65.40
2019-05-05T20:45:23.833Z,65.80
2019-05-05T20:47:28.087Z,66.30
2019-05-05T20:49:31.762Z,66.30
2019-05-05T20:51:35.463Z,66.20
2019-05-05T20:53:39.135Z,66.10
2019-05-05T20:55:44.797Z,65.90
2019-05-05T20:57:48.163Z,66.10
2019-05-05T20:59:52.030Z,65.90
2019-05-05T21:01:55.667Z,65.70
2019-05-05T21:03:59.440Z,65.60
2019-05-05T21:06:04.359Z,65.60
2019-05-05T21:08:08.398Z,65.40
2019-05-05T21:10:14.183Z,65.30
2019-05-05T21:12:17.430Z,65.10
2019-05-05T21:14:33.691Z,64.90
2019-05-05T21:16:26.495Z,64.60
2019-05-05T21:18:30.183Z,64.60
2019-05-05T21:20:34.706Z,64.50
2019-05-05T21:22:48.834Z,64.10
2019-05-05T21:24:54.235Z,64.20
2019-05-05T21:27:04.083Z,64.60
2019-05-05T21:29:08.074Z,64.50
2019-05-05T21:31:11.717Z,64.90
2019-05-05T21:33:15.416Z,64.60
2019-05-05T21:35:19.079Z,64.90
2019-05-05T21:37:25.143Z,65.30
2019-05-05T21:39:28.827Z,65.40
2019-05-05T21:41:33.948Z,65.40
2019-05-05T21:43:37.746Z,65.20
2019-05-05T21:45:41.470Z,65.20
2019-05-05T21:47:45.135Z,65.40
2019-05-05T21:49:48.819Z,65.70
2019-05-05T21:51:54.118Z,65.80
2019-05-05T21:54:08.322Z,65.80
2019-05-05T21:56:28.201Z,66.60
2019-05-05T21:58:46.677Z,66.70
2019-05-05T22:00:51.893Z,66.70
2019-05-05T22:02:55.610Z,66.70
2019-05-05T22:04:59.294Z,66.90
2019-05-05T22:07:03.753Z,66.40
2019-05-05T22:09:08.212Z,65.90
2019-05-05T22:11:11.950Z,65.20
2019-05-05T22:13:15.698Z,65.30
2019-05-05T22:15:19.535Z,65.60
2019-05-05T22:17:23.189Z,65.40
2019-05-05T22:19:28.437Z,65.30
2019-05-05T22:21:35.663Z,65.50
2019-05-05T22:23:39.035Z,65.00
2019-05-05T22:25:43.770Z,65.10
2019-05-05T22:27:47.467Z,64.80
2019-05-05T22:29:51.116Z,65.50
2019-05-05T22:31:54.886Z,64.70
2019-05-05T22:33:58.551Z,64.60
2019-05-05T22:36:04.425Z,64.90
2019-05-05T22:38:07.606Z,64.80
2019-05-05T22:40:19.493Z,64.70
2019-05-05T22:42:24.671Z,64.70
2019-05-05T22:44:28.395Z,63.90
2019-05-05T22:46:32.143Z,64.50
2019-05-05T22:48:35.794Z,65.10
2019-05-05T22:50:39.451Z,65.40
2019-05-05T22:52:44.692Z,65.50
2019-05-05T22:54:48.387Z,65.50
2019-05-05T22:56:53.866Z,65.30
2019-05-05T22:58:57.699Z,65.30
2019-05-05T23:01:01.374Z,65.30
2019-05-05T23:03:13.663Z,65.00
2019-05-05T23:05:30.515Z,64.80
2019-05-05T23:07:34.938Z,64.90
2019-05-05T23:09:38.731Z,64.60
2019-05-05T23:11:44.622Z,64.90
2019-05-05T23:13:48.397Z,65.10
2019-05-05T23:15:59.358Z,64.70
2019-05-05T23:18:10.458Z,65.20
2019-05-05T23:20:30.490Z,65.60
2019-05-05T23:22:38.650Z,66.50
2019-05-05T23:24:46.523Z,67.50
2019-05-05T23:26:51.765Z,67.30
2019-05-05T23:28:55.434Z,67.30
2019-05-05T23:30:59.121Z,68.40
2019-05-05T23:33:02.799Z,68.20
2019-05-05T23:35:06.717Z,68.00
2019-05-05T23:37:10.410Z,68.60
2019-05-05T23:39:14.058Z,68.50
2019-05-05T23:41:17.727Z,68.60
2019-05-05T23:43:21.503Z,68.00
2019-05-05T23:45:25.171Z,68.50
2019-05-05T23:47:28.843Z,68.60
2019-05-05T23:49:34.350Z,69.10
2019-05-05T23:51:37.870Z,69.00
2019-05-05T23:53:41.548Z,69.50
2019-05-05T23:55:45.305Z,69.90
2019-05-05T23:57:48.974Z,70.90
2019-05-05T23:59:53.779Z,70.60
